Terminal Aerodrome Forecast
Issued by NWS Mt. Holly, NJ

Home | Current Version | Previous Version | Text Only | Print | Product List | Glossary On
Versions: 1 2 3 4 5 6 7 8 9 10 11 12 13 14 15 16 17 18 19 20 21 22 23 24 25 26
000
FTUS41 KPHI 231500 AAB
TAFACY
TAF AMD
KACY 231507Z 2315/2412 07012G20KT P6SM -SHRA SCT025 BKN040
     FM232200 07007KT P6SM SCT050 BKN120
     FM240600 01003KT P6SM SCT050 SCT120=

USA.gov is the U.S. government's official web portal to all federal, state and local government web resources and services.